Time;durP1;ratioP1;P1;durP2;ratioP2;P2;SDS_P1;SDS_P2;PMS_P1;PMS_P2;Temp;Humidity;BMP_temperature;BMP_pressure;BME280_temperature;BME280_humidity;BME280_pressure;Samples;Min_cycle;Max_cycle;Signal;HPM_P1;HPM_P2
2022/12/27 00:01:17;;;;;;;123.70;59.10;;;;;;;;;;5017703;28;20041;-77
2022/12/27 00:03:43;;;;;;;121.20;60.42;;;;;;;;;;5017588;28;20039;-77
2022/12/27 00:06:11;;;;;;;124.05;58.17;;;;;;;;;;5034870;28;20053;-77
2022/12/27 00:08:36;;;;;;;122.72;58.28;;;;;;;;;;5017431;28;20033;-77
2022/12/27 00:11:09;;;;;;;123.40;58.15;;;;;;;;;;5035387;28;20051;-78
2022/12/27 00:13:35;;;;;;;125.95;57.05;;;;;;;;;;5034483;28;20040;-77
2022/12/27 00:16:05;;;;;;;122.88;59.45;;;;;;;;;;5017369;28;20025;-78
2022/12/27 00:18:30;;;;;;;123.18;58.95;;;;;;;;;;5017758;28;20415;-78
2022/12/27 00:20:57;;;;;;;120.50;60.35;;;;;;;;;;5033752;28;20104;-77
2022/12/27 00:23:23;;;;;;;126.50;62.35;;;;;;;;;;5034563;28;20029;-78
2022/12/27 00:25:48;;;;;;;131.10;61.47;;;;;;;;;;5017011;28;20057;-78
2022/12/27 00:28:14;;;;;;;133.73;63.30;;;;;;;;;;5016633;28;20026;-78
2022/12/27 00:30:40;;;;;;;132.95;65.93;;;;;;;;;;5034295;28;20034;-77
2022/12/27 00:33:06;;;;;;;136.52;66.93;;;;;;;;;;5033974;28;20029;-78
2022/12/27 00:35:31;;;;;;;143.50;70.95;;;;;;;;;;5016721;28;20037;-78
2022/12/27 00:37:57;;;;;;;140.93;69.10;;;;;;;;;;5034414;28;20029;-77
2022/12/27 00:40:22;;;;;;;152.02;74.45;;;;;;;;;;5034575;28;20087;-77
2022/12/27 00:42:48;;;;;;;150.70;74.15;;;;;;;;;;5016467;28;20120;-77
2022/12/27 00:45:13;;;;;;;153.65;73.80;;;;;;;;;;5034540;28;20060;-77
2022/12/27 00:47:39;;;;;;;150.70;72.03;;;;;;;;;;5016591;28;20033;-77
2022/12/27 00:50:05;;;;;;;147.98;70.70;;;;;;;;;;5016741;28;20087;-78
2022/12/27 00:52:30;;;;;;;146.52;70.13;;;;;;;;;;5016707;28;20068;-78
2022/12/27 00:54:55;;;;;;;152.80;74.78;;;;;;;;;;5034281;28;20420;-78
2022/12/27 00:57:21;;;;;;;155.20;77.45;;;;;;;;;;5016134;28;20374;-77
2022/12/27 00:59:46;;;;;;;155.55;75.50;;;;;;;;;;5034015;28;20073;-77
2022/12/27 01:02:12;;;;;;;158.52;74.88;;;;;;;;;;4999994;28;20029;-77
2022/12/27 01:04:37;;;;;;;161.63;76.43;;;;;;;;;;5033918;28;20029;-78
2022/12/27 01:07:03;;;;;;;165.77;76.07;;;;;;;;;;5033888;28;20044;-77
2022/12/27 01:09:28;;;;;;;159.50;73.88;;;;;;;;;;5016344;28;20033;-78
2022/12/27 01:11:55;;;;;;;143.50;71.55;;;;;;;;;;5034140;28;20055;-78
2022/12/27 01:14:20;;;;;;;145.80;71.78;;;;;;;;;;5033930;28;20030;-78
2022/12/27 01:16:46;;;;;;;144.00;69.47;;;;;;;;;;5034198;28;20048;-78
2022/12/27 01:19:11;;;;;;;145.98;71.32;;;;;;;;;;5033823;28;20521;-78
2022/12/27 01:21:37;;;;;;;150.82;72.35;;;;;;;;;;5033769;28;20029;-77
2022/12/27 01:24:04;;;;;;;149.07;72.57;;;;;;;;;;5034060;28;20356;-78
2022/12/27 01:26:29;;;;;;;151.25;72.78;;;;;;;;;;5033650;28;20029;-78
2022/12/27 01:28:55;;;;;;;160.30;74.32;;;;;;;;;;5033797;28;20049;-78
2022/12/27 01:31:23;;;;;;;146.95;71.22;;;;;;;;;;5016265;28;20038;-77
2022/12/27 01:33:52;;;;;;;151.48;71.22;;;;;;;;;;5032840;28;20449;-78
2022/12/27 01:36:19;;;;;;;150.65;69.85;;;;;;;;;;5033903;28;20411;-78
2022/12/27 01:38:46;;;;;;;148.07;68.93;;;;;;;;;;5016525;28;20041;-78
2022/12/27 01:44:00;;;;;;;136.60;65.22;;;;;;;;;;5035098;28;20096;-78
2022/12/27 01:46:26;;;;;;;131.60;66.18;;;;;;;;;;5036845;28;20409;-78
2022/12/27 01:48:51;;;;;;;134.65;65.05;;;;;;;;;;5036242;28;20442;-78
2022/12/27 01:51:17;;;;;;;137.63;66.25;;;;;;;;;;5020041;28;20068;-78
2022/12/27 01:53:44;;;;;;;142.88;67.93;;;;;;;;;;5037386;28;20037;-78
2022/12/27 01:56:13;;;;;;;143.45;68.03;;;;;;;;;;5019828;28;20056;-78
2022/12/27 01:58:59;;;;;;;147.85;68.82;;;;;;;;;;5020277;28;20069;-78
2022/12/27 02:01:27;;;;;;;147.73;70.20;;;;;;;;;;5019670;28;20029;-78
2022/12/27 02:04:06;;;;;;;135.85;63.33;;;;;;;;;;5020012;28;20334;-78
2022/12/27 02:06:32;;;;;;;125.43;57.60;;;;;;;;;;5036265;28;20380;-78
2022/12/27 02:09:09;;;;;;;107.90;55.13;;;;;;;;;;5035807;28;20029;-78
2022/12/27 02:11:50;;;;;;;109.03;53.92;;;;;;;;;;5037373;28;20450;-78
2022/12/27 02:14:27;;;;;;;114.75;55.58;;;;;;;;;;5036227;28;20033;-78
2022/12/27 02:16:53;;;;;;;110.25;52.75;;;;;;;;;;5037151;28;20131;-77
2022/12/27 02:19:40;;;;;;;110.68;52.65;;;;;;;;;;5035935;28;20533;-77
2022/12/27 02:22:27;;;;;;;112.70;53.28;;;;;;;;;;5036901;28;20428;-78
2022/12/27 02:24:58;;;;;;;111.10;54.17;;;;;;;;;;5036806;28;20128;-78
2022/12/27 02:27:45;;;;;;;116.95;58.25;;;;;;;;;;5019602;28;20026;-78
2022/12/27 02:30:12;;;;;;;124.82;57.95;;;;;;;;;;5036750;28;20108;-77
2022/12/27 02:32:37;;;;;;;123.50;60.70;;;;;;;;;;5019468;28;20065;-77
2022/12/27 02:35:12;;;;;;;138.52;63.88;;;;;;;;;;5019194;28;20064;-77
2022/12/27 02:37:40;;;;;;;134.77;69.75;;;;;;;;;;5036253;28;20446;-78
2022/12/27 02:54:17;;;;;;;140.07;68.45;;;;;;;;;;5049478;28;20037;-77
2022/12/27 02:57:10;;;;;;;134.25;67.22;;;;;;;;;;5035514;28;20025;-78
2022/12/27 03:03:22;;;;;;;131.77;66.88;;;;;;;;;;5036188;28;20040;-77
2022/12/27 03:18:12;;;;;;;102.28;50.22;;;;;;;;;;5035884;28;19999;-78
2022/12/27 03:26:06;;;;;;;107.90;52.25;;;;;;;;;;5021018;28;20041;-77
2022/12/27 03:34:52;;;;;;;100.13;50.85;;;;;;;;;;5035593;28;20051;-76
2022/12/27 03:40:23;;;;;;;109.38;53.85;;;;;;;;;;4955198;29;20134;-76
2022/12/27 03:43:11;;;;;;;111.60;55.92;;;;;;;;;;4985757;28;20031;-76
2022/12/27 03:49:11;;;;;;;123.63;62.53;;;;;;;;;;5035066;28;20441;-77
2022/12/27 03:51:43;;;;;;;134.10;65.63;;;;;;;;;;5003661;28;20033;-77
2022/12/27 03:54:25;;;;;;;136.07;65.93;;;;;;;;;;5018340;28;20036;-77
2022/12/27 03:56:59;;;;;;;135.07;65.00;;;;;;;;;;5019047;28;20136;-77
2022/12/27 03:59:25;;;;;;;124.13;60.88;;;;;;;;;;5034117;28;20041;-77
2022/12/27 04:01:50;;;;;;;127.97;61.75;;;;;;;;;;5034077;28;20092;-77
2022/12/27 04:04:16;;;;;;;120.53;57.65;;;;;;;;;;5034919;28;20045;-77
2022/12/27 04:06:41;;;;;;;112.20;57.60;;;;;;;;;;5016918;28;20061;-77
2022/12/27 04:36:28;;;;;;;95.45;47.70;;;;;;;;;;5034312;28;20422;-77
2022/12/27 04:38:54;;;;;;;93.00;45.35;;;;;;;;;;5034238;28;20025;-77
2022/12/27 04:55:26;;;;;;;124.32;57.35;;;;;;;;;;5033083;28;20035;-78
2022/12/27 04:57:51;;;;;;;104.32;54.60;;;;;;;;;;5016441;28;20033;-77
2022/12/27 05:03:04;;;;;;;118.93;60.92;;;;;;;;;;5033765;28;20461;-77
2022/12/27 05:05:29;;;;;;;123.13;62.65;;;;;;;;;;5016585;28;20087;-77
2022/12/27 05:16:07;;;;;;;130.15;65.93;;;;;;;;;;5034207;28;20044;-77
2022/12/27 05:18:32;;;;;;;131.00;66.15;;;;;;;;;;5033308;28;20120;-77
2022/12/27 05:21:04;;;;;;;139.23;67.55;;;;;;;;;;5032575;28;20034;-77
2022/12/27 05:26:25;;;;;;;139.70;69.03;;;;;;;;;;5032804;28;20096;-77
2022/12/27 05:28:51;;;;;;;127.40;65.35;;;;;;;;;;5018463;28;20124;-77
2022/12/27 05:31:16;;;;;;;139.35;67.55;;;;;;;;;;5035636;28;20021;-77
2022/12/27 05:33:42;;;;;;;132.43;66.35;;;;;;;;;;5052694;28;20424;-76
2022/12/27 05:36:08;;;;;;;136.23;64.30;;;;;;;;;;5052424;28;20471;-77
2022/12/27 05:38:33;;;;;;;144.75;69.75;;;;;;;;;;5036074;28;20511;-77
2022/12/27 05:40:59;;;;;;;131.02;65.70;;;;;;;;;;5035940;28;20073;-77
2022/12/27 05:43:25;;;;;;;133.90;67.65;;;;;;;;;;5053502;28;20094;-77
2022/12/27 05:45:51;;;;;;;141.68;69.55;;;;;;;;;;5053341;28;20037;-76
2022/12/27 05:48:16;;;;;;;141.18;69.18;;;;;;;;;;5053433;28;20041;-77
2022/12/27 05:50:42;;;;;;;126.15;65.75;;;;;;;;;;5035782;28;20032;-76
2022/12/27 05:53:07;;;;;;;129.75;66.88;;;;;;;;;;5052427;28;20103;-76
2022/12/27 05:55:33;;;;;;;138.32;67.40;;;;;;;;;;5053375;28;20036;-76
2022/12/27 05:57:58;;;;;;;142.57;68.40;;;;;;;;;;5053601;28;20033;-76
2022/12/27 06:00:23;;;;;;;147.95;70.40;;;;;;;;;;5035409;28;20541;-77
2022/12/27 06:02:49;;;;;;;130.07;65.25;;;;;;;;;;5053587;28;20041;-77
2022/12/27 06:05:14;;;;;;;140.95;69.07;;;;;;;;;;5053969;28;20438;-78
2022/12/27 06:07:40;;;;;;;142.73;71.60;;;;;;;;;;5053303;28;20393;-76
2022/12/27 06:10:06;;;;;;;154.48;77.03;;;;;;;;;;5053206;28;20132;-76
2022/12/27 06:12:32;;;;;;;152.00;73.70;;;;;;;;;;5019305;28;20409;-77
2022/12/27 06:14:57;;;;;;;147.55;73.60;;;;;;;;;;5051756;28;20043;-77
2022/12/27 06:17:22;;;;;;;165.10;85.40;;;;;;;;;;5035417;28;20124;-76
2022/12/27 06:19:48;;;;;;;149.85;72.90;;;;;;;;;;5053485;28;20128;-76
2022/12/27 06:22:13;;;;;;;169.25;86.28;;;;;;;;;;5053653;28;20056;-76
2022/12/27 06:24:39;;;;;;;152.40;72.68;;;;;;;;;;5053671;28;20048;-77
2022/12/27 06:27:04;;;;;;;143.00;70.07;;;;;;;;;;5035245;28;20108;-77
2022/12/27 06:29:30;;;;;;;145.40;72.32;;;;;;;;;;5051617;28;20055;-77
2022/12/27 06:31:55;;;;;;;142.25;69.63;;;;;;;;;;5037947;28;20025;-76
2022/12/27 06:34:20;;;;;;;133.27;68.45;;;;;;;;;;5039154;28;20108;-77
2022/12/27 06:36:49;;;;;;;133.93;66.43;;;;;;;;;;5056532;28;20206;-76
2022/12/27 06:39:16;;;;;;;129.68;64.93;;;;;;;;;;5056874;28;20041;-76
2022/12/27 06:41:41;;;;;;;122.30;63.15;;;;;;;;;;5056785;28;20124;-77
2022/12/27 06:44:07;;;;;;;125.57;64.97;;;;;;;;;;5056115;28;20179;-77
2022/12/27 06:46:32;;;;;;;126.63;64.57;;;;;;;;;;5056989;28;20082;-77
2022/12/27 06:48:57;;;;;;;124.03;62.95;;;;;;;;;;5038728;28;20137;-77
2022/12/27 06:51:23;;;;;;;128.88;62.78;;;;;;;;;;5056586;28;20069;-77
2022/12/27 06:53:48;;;;;;;131.68;62.38;;;;;;;;;;5038784;28;20032;-77
2022/12/27 06:56:18;;;;;;;128.02;63.17;;;;;;;;;;5056289;28;20037;-78
2022/12/27 06:58:47;;;;;;;123.68;60.28;;;;;;;;;;5056467;28;20123;-77
2022/12/27 07:01:15;;;;;;;127.43;62.38;;;;;;;;;;5038592;28;20056;-77
2022/12/27 07:03:40;;;;;;;136.85;68.95;;;;;;;;;;5022024;28;20091;-77
2022/12/27 07:06:07;;;;;;;213.18;106.40;;;;;;;;;;5056115;28;20029;-78
2022/12/27 07:08:33;;;;;;;181.95;92.28;;;;;;;;;;5038468;28;20377;-77
2022/12/27 07:11:00;;;;;;;164.77;85.95;;;;;;;;;;5038547;28;20155;-77
2022/12/27 07:13:26;;;;;;;166.23;83.95;;;;;;;;;;5037937;28;20442;-77
2022/12/27 07:15:51;;;;;;;154.35;78.97;;;;;;;;;;5055858;28;20099;-77
2022/12/27 07:18:17;;;;;;;145.35;74.35;;;;;;;;;;5055806;28;20024;-77
2022/12/27 07:20:42;;;;;;;147.02;76.60;;;;;;;;;;5055845;28;20036;-77
2022/12/27 07:23:07;;;;;;;149.90;77.10;;;;;;;;;;5055830;28;20097;-77
2022/12/27 07:25:33;;;;;;;153.10;77.95;;;;;;;;;;5056346;28;20445;-77
2022/12/27 07:27:58;;;;;;;150.70;76.95;;;;;;;;;;5055370;28;20028;-78
2022/12/27 07:30:24;;;;;;;150.77;77.85;;;;;;;;;;5055758;28;20458;-78
2022/12/27 07:32:49;;;;;;;157.57;79.22;;;;;;;;;;5054198;28;20485;-77
2022/12/27 07:35:15;;;;;;;193.23;99.88;;;;;;;;;;5038091;28;20047;-77
2022/12/27 07:37:40;;;;;;;147.73;77.28;;;;;;;;;;5055864;28;20047;-77
2022/12/27 07:40:06;;;;;;;162.48;87.63;;;;;;;;;;5055538;28;20029;-77
2022/12/27 07:42:32;;;;;;;130.85;69.85;;;;;;;;;;5053885;28;20036;-77
2022/12/27 07:44:58;;;;;;;148.20;77.88;;;;;;;;;;5055656;28;20083;-77
2022/12/27 07:47:23;;;;;;;158.10;78.78;;;;;;;;;;5055577;28;20032;-78
2022/12/27 07:49:49;;;;;;;147.95;72.63;;;;;;;;;;5055368;28;20041;-77
2022/12/27 07:52:14;;;;;;;128.65;68.75;;;;;;;;;;5037699;28;20044;-78
2022/12/27 07:54:40;;;;;;;138.18;68.65;;;;;;;;;;5055734;28;20462;-77
2022/12/27 07:57:06;;;;;;;122.82;61.67;;;;;;;;;;5054897;28;20025;-78
2022/12/27 07:59:31;;;;;;;122.25;63.90;;;;;;;;;;5037304;28;20025;-78
2022/12/27 08:02:05;;;;;;;113.25;57.53;;;;;;;;;;5055486;28;20457;-77
2022/12/27 08:04:33;;;;;;;101.72;49.83;;;;;;;;;;5037094;28;20393;-77
2022/12/27 08:07:01;;;;;;;101.72;50.42;;;;;;;;;;5037299;28;20128;-77
2022/12/27 08:09:29;;;;;;;64.43;32.75;;;;;;;;;;5037489;28;20122;-77
2022/12/27 08:11:54;;;;;;;59.05;28.17;;;;;;;;;;5036846;28;20067;-78
2022/12/27 08:14:20;;;;;;;48.08;23.25;;;;;;;;;;5055054;28;20071;-77
2022/12/27 08:16:45;;;;;;;56.85;27.55;;;;;;;;;;5053876;28;20469;-77
2022/12/27 08:19:11;;;;;;;51.20;22.85;;;;;;;;;;5037233;28;20036;-78
2022/12/27 08:21:36;;;;;;;29.13;14.52;;;;;;;;;;5055179;28;20031;-77
2022/12/27 08:24:01;;;;;;;27.50;13.23;;;;;;;;;;5055177;28;20035;-78
2022/12/27 08:26:27;;;;;;;25.52;13.27;;;;;;;;;;5053494;28;20036;-78
2022/12/27 08:28:52;;;;;;;34.75;13.85;;;;;;;;;;5054980;28;20438;-77
2022/12/27 08:31:18;;;;;;;29.08;13.88;;;;;;;;;;5037035;28;20048;-79
2022/12/27 08:33:44;;;;;;;33.42;14.52;;;;;;;;;;5037207;28;20029;-77
2022/12/27 08:36:10;;;;;;;36.30;15.93;;;;;;;;;;5054638;28;20025;-78
2022/12/27 08:38:36;;;;;;;32.67;14.70;;;;;;;;;;5021270;28;20036;-79
2022/12/27 08:41:01;;;;;;;25.40;12.25;;;;;;;;;;5053798;28;20041;-77
2022/12/27 08:43:28;;;;;;;20.33;9.98;;;;;;;;;;5037962;28;20033;-77
2022/12/27 08:46:04;;;;;;;21.48;10.50;;;;;;;;;;5037700;28;20335;-78
2022/12/27 08:48:32;;;;;;;17.75;10.43;;;;;;;;;;5037066;28;20091;-78
2022/12/27 08:51:06;;;;;;;21.88;10.55;;;;;;;;;;5037691;28;20036;-79
2022/12/27 08:53:32;;;;;;;19.83;10.50;;;;;;;;;;5036771;28;20147;-78
2022/12/27 08:56:11;;;;;;;20.50;11.15;;;;;;;;;;5054828;28;20057;-79
2022/12/27 08:58:37;;;;;;;17.20;8.77;;;;;;;;;;5056638;28;20025;-79
2022/12/27 09:01:08;;;;;;;18.08;9.00;;;;;;;;;;5059182;28;20025;-79
2022/12/27 09:03:34;;;;;;;18.83;9.07;;;;;;;;;;5040542;28;20037;-79
2022/12/27 09:06:16;;;;;;;16.38;8.52;;;;;;;;;;5039287;28;20466;-77
2022/12/27 09:08:42;;;;;;;16.40;7.90;;;;;;;;;;5057480;28;20029;-79
2022/12/27 09:11:24;;;;;;;11.95;7.53;;;;;;;;;;5037309;28;20114;-79
2022/12/27 09:13:50;;;;;;;10.55;7.38;;;;;;;;;;5054634;28;20454;-79
2022/12/27 09:16:20;;;;;;;16.92;8.48;;;;;;;;;;5054854;28;20074;-78
2022/12/27 09:18:48;;;;;;;15.20;8.65;;;;;;;;;;5055148;28;20112;-79
2022/12/27 09:21:15;;;;;;;14.88;8.57;;;;;;;;;;5055626;28;20025;-76
2022/12/27 09:23:41;;;;;;;28.75;16.25;;;;;;;;;;5036668;28;20055;-78
2022/12/27 09:26:10;;;;;;;17.08;10.05;;;;;;;;;;5053994;28;20025;-78
2022/12/27 09:28:36;;;;;;;14.30;9.20;;;;;;;;;;5022995;28;20100;-78
2022/12/27 09:31:01;;;;;;;29.50;18.20;;;;;;;;;;5057792;28;20477;-78
2022/12/27 09:33:27;;;;;;;13.38;7.50;;;;;;;;;;5037063;28;20020;-78
2022/12/27 09:35:52;;;;;;;14.15;6.80;;;;;;;;;;5036098;28;20097;-78
2022/12/27 09:38:18;;;;;;;9.77;6.15;;;;;;;;;;5035854;28;20032;-78
2022/12/27 09:40:54;;;;;;;10.32;6.78;;;;;;;;;;5054090;28;20114;-77
2022/12/27 09:43:21;;;;;;;10.35;6.43;;;;;;;;;;5036265;28;20370;-78
2022/12/27 09:45:47;;;;;;;9.23;6.65;;;;;;;;;;5035926;28;20024;-78
2022/12/27 09:48:15;;;;;;;11.27;6.13;;;;;;;;;;5036072;28;20037;-78
2022/12/27 09:50:57;;;;;;;11.18;6.68;;;;;;;;;;5036049;28;20044;-76
2022/12/27 09:53:23;;;;;;;9.98;6.70;;;;;;;;;;5035827;28;20033;-77
2022/12/27 09:55:51;;;;;;;11.07;6.95;;;;;;;;;;5019147;28;20044;-77
2022/12/27 09:58:17;;;;;;;12.02;6.88;;;;;;;;;;5036191;28;20029;-77
2022/12/27 10:00:44;;;;;;;12.50;6.80;;;;;;;;;;5053657;28;20048;-77
2022/12/27 10:03:10;;;;;;;16.55;7.88;;;;;;;;;;5035798;28;20438;-76
2022/12/27 10:05:36;;;;;;;17.35;8.38;;;;;;;;;;5038403;28;20088;-77
2022/12/27 10:08:07;;;;;;;14.80;7.20;;;;;;;;;;5039172;28;20468;-77
2022/12/27 10:10:40;;;;;;;11.63;6.97;;;;;;;;;;5057129;28;20060;-76
2022/12/27 10:13:08;;;;;;;11.00;6.80;;;;;;;;;;5056221;28;20028;-77
2022/12/27 10:15:47;;;;;;;12.48;7.38;;;;;;;;;;5039231;28;20044;-78
2022/12/27 10:18:40;;;;;;;11.18;6.25;;;;;;;;;;5056693;28;20350;-77
2022/12/27 10:21:05;;;;;;;13.25;8.02;;;;;;;;;;5039273;28;20040;-77
2022/12/27 10:23:32;;;;;;;15.65;9.32;;;;;;;;;;5056794;28;20025;-77
2022/12/27 10:26:04;;;;;;;14.18;7.20;;;;;;;;;;5022858;28;20521;-76
2022/12/27 10:28:43;;;;;;;11.45;6.10;;;;;;;;;;5056890;28;20036;-76
2022/12/27 10:31:14;;;;;;;8.07;5.45;;;;;;;;;;5039020;28;20129;-77
2022/12/27 10:33:39;;;;;;;;;;;;;;;;;;5039285;28;20055;-76
2022/12/27 10:36:10;;;;;;;11.02;6.30;;;;;;;;;;5055427;28;20030;-77
2022/12/27 10:38:36;;;;;;;15.63;6.93;;;;;;;;;;5038937;28;20033;-77
2022/12/27 10:41:16;;;;;;;16.92;7.82;;;;;;;;;;5057126;28;20111;-77
2022/12/27 10:43:42;;;;;;;11.45;6.53;;;;;;;;;;5056747;28;20398;-78
2022/12/27 10:46:23;;;;;;;10.93;6.85;;;;;;;;;;5039218;28;20031;-78
2022/12/27 10:48:53;;;;;;;12.75;6.40;;;;;;;;;;5022813;28;20036;-78
2022/12/27 10:51:19;;;;;;;12.25;6.18;;;;;;;;;;5038673;28;20465;-77
2022/12/27 10:53:44;;;;;;;11.35;6.90;;;;;;;;;;5056352;28;20132;-77
2022/12/27 10:56:16;;;;;;;18.40;8.60;;;;;;;;;;5056505;28;20163;-78
2022/12/27 10:58:46;;;;;;;13.70;7.05;;;;;;;;;;5056500;28;20044;-78
2022/12/27 11:01:22;;;;;;;20.75;9.77;;;;;;;;;;5055226;28;20044;-77
2022/12/27 11:03:48;;;;;;;17.52;7.72;;;;;;;;;;5056390;28;20373;-78
2022/12/27 11:06:24;;;;;;;14.25;8.02;;;;;;;;;;5055005;28;20037;-78
2022/12/27 11:08:50;;;;;;;8.50;5.80;;;;;;;;;;5056018;28;20032;-77
2022/12/27 11:11:22;;;;;;;13.20;7.53;;;;;;;;;;5055111;28;20029;-78
2022/12/27 11:13:48;;;;;;;14.15;8.10;;;;;;;;;;5038337;28;20029;-78
2022/12/27 11:16:27;;;;;;;10.35;6.30;;;;;;;;;;5037626;28;20036;-77
2022/12/27 11:18:54;;;;;;;9.82;5.93;;;;;;;;;;5040143;28;20033;-77
2022/12/27 11:21:20;;;;;;;11.65;6.07;;;;;;;;;;5038253;28;20116;-78
2022/12/27 11:23:51;;;;;;;9.98;6.30;;;;;;;;;;5038166;28;20411;-77
2022/12/27 11:26:22;;;;;;;10.18;5.88;;;;;;;;;;5037914;28;20036;-78
2022/12/27 11:28:55;;;;;;;10.65;5.88;;;;;;;;;;5038023;28;20032;-77
2022/12/27 11:31:33;;;;;;;11.05;6.00;;;;;;;;;;5037865;28;20120;-77
2022/12/27 11:34:20;;;;;;;9.65;4.80;;;;;;;;;;5038885;28;20135;-77
2022/12/27 11:36:47;;;;;;;8.68;5.35;;;;;;;;;;5040239;28;20037;-77
2022/12/27 11:39:41;;;;;;;8.07;4.65;;;;;;;;;;5037960;28;20037;-77
2022/12/27 11:42:12;;;;;;;9.68;5.47;;;;;;;;;;5037927;28;20416;-77
2022/12/27 11:44:39;;;;;;;;;;;;;;;;;;5038679;28;20033;-77
2022/12/27 11:47:25;;;;;;;8.80;4.47;;;;;;;;;;5055393;28;20396;-76
2022/12/27 11:49:53;;;;;;;6.93;4.72;;;;;;;;;;5037346;28;20036;-77
2022/12/27 11:52:32;;;;;;;6.93;4.32;;;;;;;;;;5037750;28;20036;-77
2022/12/27 11:55:19;;;;;;;6.82;4.72;;;;;;;;;;5055381;28;20366;-76
2022/12/27 11:57:47;;;;;;;13.45;4.95;;;;;;;;;;5055355;28;20041;-76
2022/12/27 12:00:22;;;;;;;9.32;4.70;;;;;;;;;;5055084;28;20028;-77
2022/12/27 12:03:00;;;;;;;13.07;5.03;;;;;;;;;;5037021;28;20025;-77
2022/12/27 12:05:40;;;;;;;9.48;6.10;;;;;;;;;;5055266;28;20028;-77
2022/12/27 12:08:32;;;;;;;;;;;;;;;;;;5037404;28;20501;-76
2022/12/27 12:11:22;;;;;;;8.05;4.38;;;;;;;;;;5051649;28;19912;-77
2022/12/27 12:14:05;;;;;;;8.77;4.40;;;;;;;;;;5054795;28;20032;-76
2022/12/27 12:16:54;;;;;;;8.43;5.07;;;;;;;;;;5054992;28;20029;-77
2022/12/27 12:19:40;;;;;;;9.25;5.70;;;;;;;;;;5036491;28;20025;-78
2022/12/27 12:22:26;;;;;;;10.23;5.20;;;;;;;;;;5037223;28;20367;-79
2022/12/27 12:24:59;;;;;;;8.82;5.43;;;;;;;;;;5036823;28;20033;-78
2022/12/27 12:27:39;;;;;;;6.97;4.63;;;;;;;;;;5037185;28;20036;-76
2022/12/27 12:30:19;;;;;;;8.73;5.00;;;;;;;;;;5023312;28;20058;-77
2022/12/27 12:32:54;;;;;;;7.40;4.18;;;;;;;;;;5033356;28;20025;-77
2022/12/27 12:35:41;;;;;;;9.45;4.03;;;;;;;;;;5034681;28;20076;-75
2022/12/27 12:38:34;;;;;;;12.95;5.55;;;;;;;;;;5034812;28;20039;-77
2022/12/27 12:41:21;;;;;;;24.25;10.48;;;;;;;;;;5034505;28;20079;-77
2022/12/27 12:43:53;;;;;;;12.98;7.25;;;;;;;;;;5034564;28;20041;-76
2022/12/27 12:46:35;;;;;;;13.75;7.43;;;;;;;;;;5016801;28;20473;-77
2022/12/27 12:49:09;;;;;;;17.95;9.10;;;;;;;;;;5018319;28;20045;-79
2022/12/27 12:51:41;;;;;;;23.27;11.20;;;;;;;;;;5000173;28;20039;-78
2022/12/27 12:54:21;;;;;;;14.25;7.38;;;;;;;;;;5000402;28;20441;-78
2022/12/27 12:56:59;;;;;;;8.43;4.80;;;;;;;;;;5016642;28;20022;-78
2022/12/27 12:59:33;;;;;;;22.08;10.50;;;;;;;;;;5034394;28;20034;-78
2022/12/27 13:02:17;;;;;;;11.82;6.65;;;;;;;;;;5016219;28;20128;-77
2022/12/27 13:04:57;;;;;;;24.88;12.52;;;;;;;;;;5034329;28;20048;-76
2022/12/27 13:07:25;;;;;;;;;;;;;;;;;;5034477;28;20120;-77
2022/12/27 13:10:09;;;;;;;11.32;6.25;;;;;;;;;;5033849;28;20267;-79
2022/12/27 13:13:19;;;;;;;15.93;6.82;;;;;;;;;;5034162;28;20430;-79
2022/12/27 13:15:53;;;;;;;17.52;8.77;;;;;;;;;;5033834;28;20072;-78
2022/12/27 13:18:30;;;;;;;19.38;8.27;;;;;;;;;;5033740;28;20488;-78
2022/12/27 13:21:43;;;;;;;15.13;8.32;;;;;;;;;;5017168;28;20025;-78
2022/12/27 13:24:50;;;;;;;11.27;6.20;;;;;;;;;;5028504;28;20160;-77
2022/12/27 13:28:00;;;;;;;14.82;7.00;;;;;;;;;;5033773;28;20087;-77
2022/12/27 13:30:39;;;;;;;12.65;6.38;;;;;;;;;;4956304;28;20051;-77
2022/12/27 13:33:20;;;;;;;10.43;5.63;;;;;;;;;;4956884;28;20472;-76
2022/12/27 13:35:58;;;;;;;9.70;5.22;;;;;;;;;;5029590;28;20048;-77
2022/12/27 13:39:02;;;;;;;11.88;6.28;;;;;;;;;;5036782;28;20025;-78
2022/12/27 13:41:37;;;;;;;7.65;4.72;;;;;;;;;;4996368;28;20550;-78
2022/12/27 13:44:18;;;;;;;10.02;5.28;;;;;;;;;;5050781;28;20045;-78
2022/12/27 13:46:58;;;;;;;7.30;4.88;;;;;;;;;;5040048;28;20765;-78
2022/12/27 13:49:42;;;;;;;;;;;;;;;;;;5040681;28;20033;-77
2022/12/27 13:52:25;;;;;;;9.15;4.50;;;;;;;;;;5057504;28;20285;-77
2022/12/27 13:55:10;;;;;;;8.13;5.18;;;;;;;;;;5057685;28;20037;-77
2022/12/27 13:57:38;;;;;;;8.73;5.63;;;;;;;;;;5040793;28;20351;-77
2022/12/27 14:00:18;;;;;;;12.70;7.35;;;;;;;;;;5057454;28;20370;-77
2022/12/27 14:03:19;;;;;;;11.55;6.90;;;;;;;;;;5056169;28;20021;-77
2022/12/27 14:06:13;;;;;;;14.35;7.45;;;;;;;;;;5039641;28;20036;-81
2022/12/27 14:09:13;;;;;;;16.20;7.40;;;;;;;;;;5057425;28;20127;-79
2022/12/27 14:12:08;;;;;;;15.80;7.95;;;;;;;;;;5022982;28;20036;-79
2022/12/27 14:14:34;;;;;;;16.65;8.13;;;;;;;;;;5057020;28;20040;-76
2022/12/27 14:17:45;;;;;;;14.13;7.30;;;;;;;;;;5056433;28;20057;-79
2022/12/27 14:20:33;;;;;;;11.88;6.55;;;;;;;;;;5053867;28;20045;-78
2022/12/27 14:23:10;;;;;;;15.55;8.70;;;;;;;;;;5040158;28;20489;-80
2022/12/27 14:25:50;;;;;;;18.25;9.30;;;;;;;;;;5039112;28;20040;-79
2022/12/27 14:28:31;;;;;;;11.25;6.20;;;;;;;;;;5056922;28;20568;-79
2022/12/27 14:31:26;;;;;;;13.45;7.10;;;;;;;;;;5056836;28;20115;-79
2022/12/27 14:34:22;;;;;;;15.45;6.88;;;;;;;;;;5041828;28;20445;-78
2022/12/27 14:37:13;;;;;;;14.82;7.90;;;;;;;;;;5056849;28;20202;-78
2022/12/27 14:39:57;;;;;;;16.65;7.28;;;;;;;;;;5056759;28;20025;-78
2022/12/27 14:42:44;;;;;;;12.95;7.15;;;;;;;;;;5062616;28;20033;-79
2022/12/27 14:45:33;;;;;;;13.60;6.80;;;;;;;;;;5064688;28;20041;-78
2022/12/27 14:48:06;;;;;;;14.93;7.78;;;;;;;;;;5058835;28;20039;-78
2022/12/27 14:51:03;;;;;;;16.75;8.77;;;;;;;;;;5039988;28;20033;-79
2022/12/27 14:54:02;;;;;;;12.32;6.93;;;;;;;;;;5041265;28;20053;-77
2022/12/27 14:57:13;;;;;;;15.10;6.70;;;;;;;;;;5056443;28;20025;-77
2022/12/27 15:00:10;;;;;;;10.77;6.05;;;;;;;;;;5051710;28;20041;-77
2022/12/27 15:02:50;;;;;;;10.95;6.18;;;;;;;;;;5055158;28;20451;-77
2022/12/27 15:05:32;;;;;;;13.82;8.35;;;;;;;;;;5056489;28;20178;-76
2022/12/27 15:08:20;;;;;;;15.35;8.88;;;;;;;;;;5038672;28;20048;-77
2022/12/27 15:10:55;;;;;;;14.43;7.10;;;;;;;;;;5054822;28;20041;-77
2022/12/27 15:13:47;;;;;;;13.65;7.30;;;;;;;;;;5038285;28;20141;-77
2022/12/27 15:16:18;;;;;;;13.95;6.72;;;;;;;;;;5051311;28;20048;-77
2022/12/27 15:19:06;;;;;;;11.90;6.72;;;;;;;;;;5054681;28;20545;-77
2022/12/27 15:21:47;;;;;;;13.23;7.32;;;;;;;;;;5054620;28;20056;-77
2022/12/27 15:24:43;;;;;;;15.63;7.72;;;;;;;;;;5055777;28;20406;-77
2022/12/27 15:27:33;;;;;;;14.77;8.00;;;;;;;;;;5055460;28;20138;-77
2022/12/27 15:30:06;;;;;;;15.23;7.32;;;;;;;;;;5038868;28;20053;-78
2022/12/27 15:32:53;;;;;;;15.45;8.35;;;;;;;;;;5054396;28;20025;-78
2022/12/27 15:35:40;;;;;;;24.75;12.05;;;;;;;;;;5037922;28;20123;-77
2022/12/27 15:38:11;;;;;;;23.08;10.52;;;;;;;;;;5055746;28;20053;-77
2022/12/27 15:40:47;;;;;;;17.25;9.63;;;;;;;;;;5037692;28;20400;-78
2022/12/27 15:43:24;;;;;;;18.52;9.07;;;;;;;;;;5054506;28;20037;-78
2022/12/27 15:46:27;;;;;;;17.20;8.48;;;;;;;;;;5055515;28;20037;-77
2022/12/27 15:49:30;;;;;;;18.20;9.45;;;;;;;;;;5055432;28;20037;-77
2022/12/27 15:52:10;;;;;;;18.73;9.60;;;;;;;;;;5055174;28;20033;-77
2022/12/27 15:54:58;;;;;;;15.10;8.52;;;;;;;;;;5055178;28;20060;-76
2022/12/27 15:57:40;;;;;;;17.13;9.40;;;;;;;;;;5037432;28;20041;-77
2022/12/27 16:00:16;;;;;;;25.83;12.57;;;;;;;;;;5020958;28;20128;-77
2022/12/27 16:02:47;;;;;;;27.63;13.48;;;;;;;;;;5055333;28;20033;-78
2022/12/27 16:05:19;;;;;;;32.75;15.88;;;;;;;;;;5055239;28;20450;-77
2022/12/27 16:08:07;;;;;;;25.75;12.73;;;;;;;;;;5055049;28;20421;-79
2022/12/27 16:10:39;;;;;;;25.17;12.07;;;;;;;;;;5041814;28;20135;-77
2022/12/27 16:13:30;;;;;;;25.20;12.00;;;;;;;;;;5055101;28;20037;-78
2022/12/27 16:15:56;;;;;;;26.50;11.57;;;;;;;;;;5054866;28;20115;-78
2022/12/27 16:18:21;;;;;;;29.10;13.38;;;;;;;;;;5037223;28;20040;-78
2022/12/27 16:21:21;;;;;;;25.58;13.05;;;;;;;;;;5054717;28;20303;-78
2022/12/27 16:23:48;;;;;;;21.93;11.47;;;;;;;;;;5036662;28;20041;-78
2022/12/27 16:26:32;;;;;;;29.35;12.73;;;;;;;;;;5036885;28;20036;-78
2022/12/27 16:28:59;;;;;;;25.48;13.05;;;;;;;;;;5054477;28;20048;-76
2022/12/27 16:31:29;;;;;;;28.52;12.65;;;;;;;;;;5053524;28;20044;-79
2022/12/27 16:33:55;;;;;;;38.05;14.82;;;;;;;;;;5053576;28;20064;-77
2022/12/27 16:36:25;;;;;;;24.08;11.48;;;;;;;;;;5020381;28;20063;-78
2022/12/27 16:39:11;;;;;;;25.88;11.80;;;;;;;;;;5054460;28;20037;-78